sensor_id;sensor_type;location;lat;lon;timestamp;P1;durP1;ratioP1;P2;durP2;ratioP2
50231;SDS011;36118;56.468;84.952;2023-10-09T00:03:01;66.55;;;38.45;;
50231;SDS011;36118;56.468;84.952;2023-10-09T00:08:06;58.53;;;38.72;;
50231;SDS011;36118;56.468;84.952;2023-10-09T00:13:11;61.42;;;38.95;;
50231;SDS011;36118;56.468;84.952;2023-10-09T00:18:14;65.45;;;40.78;;
50231;SDS011;36118;56.468;84.952;2023-10-09T00:23:18;57.50;;;39.33;;
50231;SDS011;36118;56.468;84.952;2023-10-09T00:28:21;60.40;;;38.38;;
50231;SDS011;36118;56.468;84.952;2023-10-09T00:33:25;56.05;;;36.85;;
50231;SDS011;36118;56.468;84.952;2023-10-09T00:38:28;56.72;;;34.83;;
50231;SDS011;36118;56.468;84.952;2023-10-09T00:43:37;51.97;;;35.20;;
50231;SDS011;36118;56.468;84.952;2023-10-09T00:48:41;49.10;;;35.78;;
50231;SDS011;36118;56.468;84.952;2023-10-09T00:53:46;51.20;;;33.67;;
50231;SDS011;36118;56.468;84.952;2023-10-09T00:58:57;45.85;;;32.65;;
50231;SDS011;36118;56.468;84.952;2023-10-09T01:04:24;46.50;;;31.80;;
50231;SDS011;36118;56.468;84.952;2023-10-09T01:09:32;46.55;;;30.92;;
50231;SDS011;36118;56.468;84.952;2023-10-09T01:14:45;42.55;;;31.38;;
50231;SDS011;36118;56.468;84.952;2023-10-09T01:19:55;41.42;;;29.40;;
50231;SDS011;36118;56.468;84.952;2023-10-09T01:24:58;42.55;;;29.88;;
50231;SDS011;36118;56.468;84.952;2023-10-09T01:30:04;44.60;;;28.45;;
50231;SDS011;36118;56.468;84.952;2023-10-09T01:35:07;40.63;;;28.08;;
50231;SDS011;36118;56.468;84.952;2023-10-09T01:40:22;39.97;;;26.85;;
50231;SDS011;36118;56.468;84.952;2023-10-09T01:45:38;37.15;;;24.95;;
50231;SDS011;36118;56.468;84.952;2023-10-09T01:50:49;35.30;;;23.88;;
50231;SDS011;36118;56.468;84.952;2023-10-09T01:55:52;33.13;;;23.45;;
50231;SDS011;36118;56.468;84.952;2023-10-09T02:00:58;39.60;;;25.48;;
50231;SDS011;36118;56.468;84.952;2023-10-09T02:06:05;27.35;;;20.10;;
50231;SDS011;36118;56.468;84.952;2023-10-09T02:11:20;25.42;;;18.98;;
50231;SDS011;36118;56.468;84.952;2023-10-09T02:16:42;31.58;;;18.75;;
50231;SDS011;36118;56.468;84.952;2023-10-09T02:21:46;25.70;;;18.27;;
50231;SDS011;36118;56.468;84.952;2023-10-09T02:26:50;29.13;;;18.05;;
50231;SDS011;36118;56.468;84.952;2023-10-09T02:31:53;29.10;;;17.92;;
50231;SDS011;36118;56.468;84.952;2023-10-09T02:37:03;26.38;;;17.08;;
50231;SDS011;36118;56.468;84.952;2023-10-09T02:42:16;26.15;;;17.45;;
50231;SDS011;36118;56.468;84.952;2023-10-09T02:47:31;23.95;;;15.57;;
50231;SDS011;36118;56.468;84.952;2023-10-09T02:52:40;23.85;;;16.05;;
50231;SDS011;36118;56.468;84.952;2023-10-09T02:57:44;21.98;;;15.73;;
50231;SDS011;36118;56.468;84.952;2023-10-09T03:02:48;24.08;;;14.55;;
50231;SDS011;36118;56.468;84.952;2023-10-09T03:12:57;20.17;;;13.55;;
50231;SDS011;36118;56.468;84.952;2023-10-09T03:18:06;26.20;;;14.35;;
50231;SDS011;36118;56.468;84.952;2023-10-09T03:28:16;22.73;;;13.55;;
50231;SDS011;36118;56.468;84.952;2023-10-09T03:33:21;18.27;;;13.10;;
50231;SDS011;36118;56.468;84.952;2023-10-09T03:38:26;17.95;;;13.07;;
50231;SDS011;36118;56.468;84.952;2023-10-09T03:43:37;21.00;;;13.63;;
50231;SDS011;36118;56.468;84.952;2023-10-09T03:48:44;19.77;;;13.60;;
50231;SDS011;36118;56.468;84.952;2023-10-09T03:53:50;15.85;;;13.20;;
50231;SDS011;36118;56.468;84.952;2023-10-09T03:58:56;20.60;;;13.02;;
50231;SDS011;36118;56.468;84.952;2023-10-09T04:04:00;18.65;;;13.13;;
50231;SDS011;36118;56.468;84.952;2023-10-09T04:09:05;22.63;;;12.00;;
50231;SDS011;36118;56.468;84.952;2023-10-09T04:14:23;21.33;;;12.50;;
50231;SDS011;36118;56.468;84.952;2023-10-09T04:19:36;21.70;;;12.63;;
50231;SDS011;36118;56.468;84.952;2023-10-09T04:24:50;23.63;;;12.63;;
50231;SDS011;36118;56.468;84.952;2023-10-09T04:29:54;19.60;;;12.95;;
50231;SDS011;36118;56.468;84.952;2023-10-09T04:34:57;17.33;;;12.02;;
50231;SDS011;36118;56.468;84.952;2023-10-09T04:40:21;19.27;;;12.60;;
50231;SDS011;36118;56.468;84.952;2023-10-09T04:45:42;18.45;;;13.00;;
50231;SDS011;36118;56.468;84.952;2023-10-09T04:50:49;18.02;;;12.85;;
50231;SDS011;36118;56.468;84.952;2023-10-09T04:56:10;19.77;;;12.60;;
50231;SDS011;36118;56.468;84.952;2023-10-09T05:01:18;20.05;;;12.88;;
50231;SDS011;36118;56.468;84.952;2023-10-09T05:06:39;20.98;;;12.90;;
50231;SDS011;36118;56.468;84.952;2023-10-09T05:11:45;18.00;;;12.57;;
50231;SDS011;36118;56.468;84.952;2023-10-09T05:16:54;23.83;;;13.07;;
50231;SDS011;36118;56.468;84.952;2023-10-09T05:21:58;16.48;;;12.70;;
50231;SDS011;36118;56.468;84.952;2023-10-09T05:27:07;17.48;;;11.20;;
50231;SDS011;36118;56.468;84.952;2023-10-09T05:37:51;14.77;;;11.32;;
50231;SDS011;36118;56.468;84.952;2023-10-09T05:43:04;17.50;;;10.98;;
50231;SDS011;36118;56.468;84.952;2023-10-09T05:48:08;21.88;;;10.40;;
50231;SDS011;36118;56.468;84.952;2023-10-09T05:53:40;17.65;;;10.15;;
50231;SDS011;36118;56.468;84.952;2023-10-09T06:04:07;13.95;;;9.55;;
50231;SDS011;36118;56.468;84.952;2023-10-09T06:09:22;13.20;;;7.97;;
50231;SDS011;36118;56.468;84.952;2023-10-09T06:14:45;11.10;;;8.43;;
50231;SDS011;36118;56.468;84.952;2023-10-09T06:19:52;11.70;;;7.55;;
50231;SDS011;36118;56.468;84.952;2023-10-09T06:25:01;9.43;;;7.78;;
50231;SDS011;36118;56.468;84.952;2023-10-09T06:30:11;11.35;;;7.78;;
50231;SDS011;36118;56.468;84.952;2023-10-09T06:35:21;12.73;;;7.07;;
50231;SDS011;36118;56.468;84.952;2023-10-09T06:40:26;13.07;;;6.90;;
50231;SDS011;36118;56.468;84.952;2023-10-09T06:45:51;10.68;;;7.20;;
50231;SDS011;36118;56.468;84.952;2023-10-09T06:51:15;10.55;;;6.82;;
50231;SDS011;36118;56.468;84.952;2023-10-09T06:56:39;15.98;;;6.50;;
50231;SDS011;36118;56.468;84.952;2023-10-09T07:01:42;12.25;;;4.93;;
50231;SDS011;36118;56.468;84.952;2023-10-09T07:06:47;27.38;;;5.50;;
50231;SDS011;36118;56.468;84.952;2023-10-09T07:11:52;8.07;;;4.60;;
50231;SDS011;36118;56.468;84.952;2023-10-09T07:16:59;8.73;;;4.40;;
50231;SDS011;36118;56.468;84.952;2023-10-09T07:22:18;8.02;;;5.00;;
50231;SDS011;36118;56.468;84.952;2023-10-09T07:27:26;7.10;;;4.97;;
50231;SDS011;36118;56.468;84.952;2023-10-09T07:32:49;8.00;;;4.93;;
50231;SDS011;36118;56.468;84.952;2023-10-09T07:37:55;9.77;;;4.50;;
50231;SDS011;36118;56.468;84.952;2023-10-09T07:42:59;10.35;;;5.20;;
50231;SDS011;36118;56.468;84.952;2023-10-09T07:48:08;9.40;;;4.20;;
50231;SDS011;36118;56.468;84.952;2023-10-09T07:53:17;9.13;;;4.43;;
50231;SDS011;36118;56.468;84.952;2023-10-09T07:58:29;9.48;;;4.30;;
50231;SDS011;36118;56.468;84.952;2023-10-09T08:03:34;10.77;;;4.20;;
50231;SDS011;36118;56.468;84.952;2023-10-09T08:13:42;8.57;;;4.53;;
50231;SDS011;36118;56.468;84.952;2023-10-09T08:19:04;6.05;;;3.92;;
50231;SDS011;36118;56.468;84.952;2023-10-09T08:24:26;8.00;;;4.15;;
50231;SDS011;36118;56.468;84.952;2023-10-09T08:29:44;11.18;;;4.18;;
50231;SDS011;36118;56.468;84.952;2023-10-09T08:34:50;10.45;;;3.80;;
50231;SDS011;36118;56.468;84.952;2023-10-09T08:39:59;17.80;;;4.50;;
50231;SDS011;36118;56.468;84.952;2023-10-09T08:45:04;11.27;;;3.80;;
50231;SDS011;36118;56.468;84.952;2023-10-09T08:50:08;7.20;;;3.00;;
50231;SDS011;36118;56.468;84.952;2023-10-09T08:55:16;16.65;;;3.33;;
50231;SDS011;36118;56.468;84.952;2023-10-09T09:00:19;12.68;;;3.80;;
50231;SDS011;36118;56.468;84.952;2023-10-09T09:05:27;12.30;;;3.70;;
50231;SDS011;36118;56.468;84.952;2023-10-09T09:10:33;21.30;;;3.90;;
50231;SDS011;36118;56.468;84.952;2023-10-09T09:15:42;17.05;;;6.05;;
50231;SDS011;36118;56.468;84.952;2023-10-09T09:20:50;11.35;;;3.47;;
50231;SDS011;36118;56.468;84.952;2023-10-09T09:25:56;34.35;;;5.78;;
50231;SDS011;36118;56.468;84.952;2023-10-09T09:31:08;15.15;;;4.00;;
50231;SDS011;36118;56.468;84.952;2023-10-09T09:36:17;11.10;;;3.50;;
50231;SDS011;36118;56.468;84.952;2023-10-09T09:41:20;7.72;;;3.00;;
50231;SDS011;36118;56.468;84.952;2023-10-09T09:46:31;8.93;;;3.28;;
50231;SDS011;36118;56.468;84.952;2023-10-09T09:51:39;6.30;;;2.78;;
50231;SDS011;36118;56.468;84.952;2023-10-09T09:56:45;5.57;;;3.10;;
50231;SDS011;36118;56.468;84.952;2023-10-09T10:01:56;7.75;;;3.20;;
50231;SDS011;36118;56.468;84.952;2023-10-09T10:07:09;9.45;;;3.20;;
50231;SDS011;36118;56.468;84.952;2023-10-09T10:12:15;10.98;;;3.53;;
50231;SDS011;36118;56.468;84.952;2023-10-09T10:23:17;9.27;;;3.70;;
50231;SDS011;36118;56.468;84.952;2023-10-09T10:28:28;9.52;;;3.90;;
50231;SDS011;36118;56.468;84.952;2023-10-09T10:39:07;9.15;;;3.30;;
50231;SDS011;36118;56.468;84.952;2023-10-09T10:44:14;9.35;;;3.95;;
50231;SDS011;36118;56.468;84.952;2023-10-09T10:49:36;7.53;;;3.28;;
50231;SDS011;36118;56.468;84.952;2023-10-09T10:59:44;9.45;;;3.33;;
50231;SDS011;36118;56.468;84.952;2023-10-09T11:04:48;7.60;;;3.25;;
50231;SDS011;36118;56.468;84.952;2023-10-09T11:10:12;7.57;;;3.20;;
50231;SDS011;36118;56.468;84.952;2023-10-09T11:15:33;7.68;;;3.50;;
50231;SDS011;36118;56.468;84.952;2023-10-09T11:20:51;7.55;;;3.60;;
50231;SDS011;36118;56.468;84.952;2023-10-09T11:26:18;7.22;;;3.35;;
50231;SDS011;36118;56.468;84.952;2023-10-09T11:31:26;9.60;;;4.07;;
50231;SDS011;36118;56.468;84.952;2023-10-09T11:36:29;7.50;;;3.60;;
50231;SDS011;36118;56.468;84.952;2023-10-09T11:41:39;9.60;;;3.63;;
50231;SDS011;36118;56.468;84.952;2023-10-09T11:47:00;9.65;;;3.72;;
50231;SDS011;36118;56.468;84.952;2023-10-09T11:52:23;9.43;;;4.15;;
50231;SDS011;36118;56.468;84.952;2023-10-09T11:57:38;16.27;;;4.13;;
50231;SDS011;36118;56.468;84.952;2023-10-09T12:02:42;13.93;;;4.22;;
50231;SDS011;36118;56.468;84.952;2023-10-09T12:07:47;9.60;;;3.83;;
50231;SDS011;36118;56.468;84.952;2023-10-09T12:12:58;6.60;;;3.70;;
50231;SDS011;36118;56.468;84.952;2023-10-09T12:18:03;13.07;;;4.65;;
50231;SDS011;36118;56.468;84.952;2023-10-09T12:23:14;10.25;;;3.97;;
50231;SDS011;36118;56.468;84.952;2023-10-09T12:28:18;12.73;;;4.32;;
50231;SDS011;36118;56.468;84.952;2023-10-09T12:33:25;10.00;;;4.13;;
50231;SDS011;36118;56.468;84.952;2023-10-09T12:38:32;14.52;;;4.70;;
50231;SDS011;36118;56.468;84.952;2023-10-09T12:43:36;9.20;;;4.03;;
50231;SDS011;36118;56.468;84.952;2023-10-09T12:48:40;9.65;;;4.30;;
50231;SDS011;36118;56.468;84.952;2023-10-09T12:53:49;14.57;;;4.75;;
50231;SDS011;36118;56.468;84.952;2023-10-09T12:58:59;7.57;;;4.53;;
50231;SDS011;36118;56.468;84.952;2023-10-09T13:04:04;10.38;;;4.82;;
50231;SDS011;36118;56.468;84.952;2023-10-09T13:09:15;9.57;;;4.43;;
50231;SDS011;36118;56.468;84.952;2023-10-09T13:14:28;13.00;;;4.65;;
50231;SDS011;36118;56.468;84.952;2023-10-09T13:19:32;8.63;;;4.35;;
50231;SDS011;36118;56.468;84.952;2023-10-09T13:24:36;9.30;;;4.70;;
50231;SDS011;36118;56.468;84.952;2023-10-09T13:29:41;8.52;;;4.53;;
50231;SDS011;36118;56.468;84.952;2023-10-09T13:34:45;12.68;;;4.50;;
50231;SDS011;36118;56.468;84.952;2023-10-09T13:39:49;8.32;;;4.00;;
50231;SDS011;36118;56.468;84.952;2023-10-09T13:44:55;8.65;;;4.32;;
50231;SDS011;36118;56.468;84.952;2023-10-09T13:49:59;8.02;;;4.25;;
50231;SDS011;36118;56.468;84.952;2023-10-09T13:55:06;9.82;;;4.30;;
50231;SDS011;36118;56.468;84.952;2023-10-09T14:00:21;11.15;;;5.10;;
50231;SDS011;36118;56.468;84.952;2023-10-09T14:05:37;10.13;;;5.40;;
50231;SDS011;36118;56.468;84.952;2023-10-09T14:10:47;9.25;;;4.80;;
50231;SDS011;36118;56.468;84.952;2023-10-09T14:15:53;10.15;;;4.63;;
50231;SDS011;36118;56.468;84.952;2023-10-09T14:26:07;6.72;;;4.13;;
50231;SDS011;36118;56.468;84.952;2023-10-09T14:31:10;9.65;;;4.63;;
50231;SDS011;36118;56.468;84.952;2023-10-09T14:41:20;8.65;;;3.92;;
50231;SDS011;36118;56.468;84.952;2023-10-09T14:46:28;11.40;;;4.25;;
50231;SDS011;36118;56.468;84.952;2023-10-09T14:51:33;7.43;;;4.37;;
50231;SDS011;36118;56.468;84.952;2023-10-09T14:56:36;6.80;;;4.13;;
50231;SDS011;36118;56.468;84.952;2023-10-09T15:01:41;8.80;;;4.32;;
50231;SDS011;36118;56.468;84.952;2023-10-09T15:06:45;8.18;;;4.07;;
50231;SDS011;36118;56.468;84.952;2023-10-09T15:11:52;8.50;;;4.10;;
50231;SDS011;36118;56.468;84.952;2023-10-09T15:16:55;8.43;;;4.03;;
50231;SDS011;36118;56.468;84.952;2023-10-09T15:22:00;9.27;;;3.88;;
50231;SDS011;36118;56.468;84.952;2023-10-09T15:27:03;8.68;;;4.00;;
50231;SDS011;36118;56.468;84.952;2023-10-09T15:32:08;9.60;;;3.90;;
50231;SDS011;36118;56.468;84.952;2023-10-09T15:37:17;10.75;;;5.20;;
50231;SDS011;36118;56.468;84.952;2023-10-09T15:42:20;8.65;;;3.30;;
50231;SDS011;36118;56.468;84.952;2023-10-09T15:47:24;6.28;;;3.58;;
50231;SDS011;36118;56.468;84.952;2023-10-09T15:52:27;8.45;;;4.10;;
50231;SDS011;36118;56.468;84.952;2023-10-09T15:57:30;6.38;;;3.67;;
50231;SDS011;36118;56.468;84.952;2023-10-09T16:02:35;8.27;;;4.00;;
50231;SDS011;36118;56.468;84.952;2023-10-09T16:07:39;8.40;;;3.83;;
50231;SDS011;36118;56.468;84.952;2023-10-09T16:12:42;7.40;;;3.75;;
50231;SDS011;36118;56.468;84.952;2023-10-09T16:17:47;10.18;;;3.83;;
50231;SDS011;36118;56.468;84.952;2023-10-09T16:22:50;7.75;;;3.90;;
50231;SDS011;36118;56.468;84.952;2023-10-09T16:27:53;12.38;;;3.88;;
50231;SDS011;36118;56.468;84.952;2023-10-09T16:33:04;8.05;;;3.60;;
50231;SDS011;36118;56.468;84.952;2023-10-09T16:38:11;8.52;;;3.80;;
50231;SDS011;36118;56.468;84.952;2023-10-09T16:43:15;7.88;;;4.13;;
50231;SDS011;36118;56.468;84.952;2023-10-09T16:48:20;10.80;;;4.57;;
50231;SDS011;36118;56.468;84.952;2023-10-09T16:53:25;8.30;;;5.82;;
50231;SDS011;36118;56.468;84.952;2023-10-09T16:58:28;10.23;;;4.28;;
50231;SDS011;36118;56.468;84.952;2023-10-09T17:03:31;6.78;;;4.30;;
50231;SDS011;36118;56.468;84.952;2023-10-09T17:08:38;8.65;;;4.18;;
50231;SDS011;36118;56.468;84.952;2023-10-09T17:13:50;7.30;;;3.83;;
50231;SDS011;36118;56.468;84.952;2023-10-09T17:18:57;9.20;;;4.10;;
50231;SDS011;36118;56.468;84.952;2023-10-09T17:24:05;9.05;;;4.07;;
50231;SDS011;36118;56.468;84.952;2023-10-09T17:29:13;8.50;;;4.15;;
50231;SDS011;36118;56.468;84.952;2023-10-09T17:34:17;10.02;;;4.20;;
50231;SDS011;36118;56.468;84.952;2023-10-09T17:39:21;7.78;;;4.13;;
50231;SDS011;36118;56.468;84.952;2023-10-09T17:44:29;10.50;;;4.70;;
50231;SDS011;36118;56.468;84.952;2023-10-09T17:49:33;10.70;;;4.47;;
50231;SDS011;36118;56.468;84.952;2023-10-09T17:54:39;10.57;;;4.13;;
50231;SDS011;36118;56.468;84.952;2023-10-09T17:59:42;9.07;;;4.40;;
50231;SDS011;36118;56.468;84.952;2023-10-09T18:04:45;7.78;;;4.00;;
50231;SDS011;36118;56.468;84.952;2023-10-09T18:09:48;9.02;;;3.90;;
50231;SDS011;36118;56.468;84.952;2023-10-09T18:14:55;11.02;;;4.10;;
50231;SDS011;36118;56.468;84.952;2023-10-09T18:20:01;8.82;;;3.75;;
50231;SDS011;36118;56.468;84.952;2023-10-09T18:25:08;9.10;;;3.88;;
50231;SDS011;36118;56.468;84.952;2023-10-09T18:30:12;10.43;;;4.15;;
50231;SDS011;36118;56.468;84.952;2023-10-09T18:35:15;9.60;;;4.03;;
50231;SDS011;36118;56.468;84.952;2023-10-09T18:40:19;11.88;;;4.07;;
50231;SDS011;36118;56.468;84.952;2023-10-09T18:45:23;9.93;;;3.92;;
50231;SDS011;36118;56.468;84.952;2023-10-09T18:50:27;8.13;;;3.80;;
50231;SDS011;36118;56.468;84.952;2023-10-09T18:55:34;13.20;;;4.13;;
50231;SDS011;36118;56.468;84.952;2023-10-09T19:00:41;8.75;;;3.35;;
50231;SDS011;36118;56.468;84.952;2023-10-09T19:05:53;11.40;;;3.92;;
50231;SDS011;36118;56.468;84.952;2023-10-09T19:10:59;15.75;;;6.85;;
50231;SDS011;36118;56.468;84.952;2023-10-09T19:16:03;7.45;;;3.80;;
50231;SDS011;36118;56.468;84.952;2023-10-09T19:21:10;8.07;;;3.72;;
50231;SDS011;36118;56.468;84.952;2023-10-09T19:26:13;6.18;;;3.60;;
50231;SDS011;36118;56.468;84.952;2023-10-09T19:31:18;9.43;;;4.15;;
50231;SDS011;36118;56.468;84.952;2023-10-09T19:36:24;9.88;;;3.95;;
50231;SDS011;36118;56.468;84.952;2023-10-09T19:41:29;12.30;;;3.75;;
50231;SDS011;36118;56.468;84.952;2023-10-09T19:46:36;9.60;;;3.78;;
50231;SDS011;36118;56.468;84.952;2023-10-09T19:51:43;12.27;;;4.18;;
50231;SDS011;36118;56.468;84.952;2023-10-09T19:56:46;10.93;;;4.55;;
50231;SDS011;36118;56.468;84.952;2023-10-09T20:01:49;10.52;;;4.40;;
50231;SDS011;36118;56.468;84.952;2023-10-09T20:06:54;8.85;;;4.38;;
50231;SDS011;36118;56.468;84.952;2023-10-09T20:11:58;12.13;;;4.40;;
50231;SDS011;36118;56.468;84.952;2023-10-09T20:17:03;9.00;;;4.25;;
50231;SDS011;36118;56.468;84.952;2023-10-09T20:22:07;11.00;;;4.80;;
50231;SDS011;36118;56.468;84.952;2023-10-09T20:27:09;8.65;;;4.53;;
50231;SDS011;36118;56.468;84.952;2023-10-09T20:32:14;10.03;;;4.50;;
50231;SDS011;36118;56.468;84.952;2023-10-09T20:37:18;9.82;;;4.70;;
50231;SDS011;36118;56.468;84.952;2023-10-09T20:42:21;9.93;;;4.53;;
50231;SDS011;36118;56.468;84.952;2023-10-09T20:47:27;12.30;;;4.30;;
50231;SDS011;36118;56.468;84.952;2023-10-09T20:52:30;10.40;;;4.60;;
50231;SDS011;36118;56.468;84.952;2023-10-09T20:57:34;11.90;;;4.50;;
50231;SDS011;36118;56.468;84.952;2023-10-09T21:02:38;14.30;;;4.50;;
50231;SDS011;36118;56.468;84.952;2023-10-09T21:07:50;8.18;;;3.88;;
50231;SDS011;36118;56.468;84.952;2023-10-09T21:12:55;9.93;;;4.32;;
50231;SDS011;36118;56.468;84.952;2023-10-09T21:17:58;7.15;;;3.92;;
50231;SDS011;36118;56.468;84.952;2023-10-09T21:23:01;7.90;;;4.22;;
50231;SDS011;36118;56.468;84.952;2023-10-09T21:28:06;9.38;;;3.90;;
50231;SDS011;36118;56.468;84.952;2023-10-09T21:33:09;8.40;;;3.97;;
50231;SDS011;36118;56.468;84.952;2023-10-09T21:38:12;11.75;;;4.57;;
50231;SDS011;36118;56.468;84.952;2023-10-09T21:43:15;11.75;;;3.97;;
50231;SDS011;36118;56.468;84.952;2023-10-09T21:48:20;14.50;;;4.20;;
50231;SDS011;36118;56.468;84.952;2023-10-09T21:53:24;8.67;;;4.13;;
50231;SDS011;36118;56.468;84.952;2023-10-09T21:58:30;8.93;;;4.07;;
50231;SDS011;36118;56.468;84.952;2023-10-09T22:03:33;8.60;;;3.67;;
50231;SDS011;36118;56.468;84.952;2023-10-09T22:08:38;8.65;;;3.63;;
50231;SDS011;36118;56.468;84.952;2023-10-09T22:13:41;9.00;;;3.90;;
50231;SDS011;36118;56.468;84.952;2023-10-09T22:18:45;11.00;;;3.60;;
50231;SDS011;36118;56.468;84.952;2023-10-09T22:24:12;8.18;;;3.63;;
50231;SDS011;36118;56.468;84.952;2023-10-09T22:29:20;10.35;;;3.50;;
50231;SDS011;36118;56.468;84.952;2023-10-09T22:34:23;10.25;;;3.63;;
50231;SDS011;36118;56.468;84.952;2023-10-09T22:39:28;7.80;;;3.58;;
50231;SDS011;36118;56.468;84.952;2023-10-09T22:44:38;7.15;;;3.40;;
50231;SDS011;36118;56.468;84.952;2023-10-09T22:49:45;7.35;;;3.60;;
50231;SDS011;36118;56.468;84.952;2023-10-09T22:54:55;11.15;;;3.97;;
50231;SDS011;36118;56.468;84.952;2023-10-09T23:00:02;12.38;;;4.28;;
50231;SDS011;36118;56.468;84.952;2023-10-09T23:05:06;9.43;;;3.70;;
50231;SDS011;36118;56.468;84.952;2023-10-09T23:10:15;9.60;;;3.90;;
50231;SDS011;36118;56.468;84.952;2023-10-09T23:15:19;10.85;;;3.83;;
50231;SDS011;36118;56.468;84.952;2023-10-09T23:20:38;8.55;;;3.75;;
50231;SDS011;36118;56.468;84.952;2023-10-09T23:25:52;8.82;;;4.22;;
50231;SDS011;36118;56.468;84.952;2023-10-09T23:30:56;12.05;;;4.10;;
50231;SDS011;36118;56.468;84.952;2023-10-09T23:36:00;8.88;;;4.55;;
50231;SDS011;36118;56.468;84.952;2023-10-09T23:41:08;8.13;;;3.92;;
50231;SDS011;36118;56.468;84.952;2023-10-09T23:46:13;8.52;;;3.85;;
50231;SDS011;36118;56.468;84.952;2023-10-09T23:51:26;11.23;;;4.43;;
50231;SDS011;36118;56.468;84.952;2023-10-09T23:56:31;9.90;;;4.05;;
